Map

Track Data

SID SEASON NUMBER BASIN SUBBASIN NAME ISO_TIME NATURE LAT LON WMO_WIND WMO_PRES WMO_AGENCY TRACK_TYPE DIST2LAND LANDFALL IFLAG USA_AGENCY USA_ATCF_ID USA_LAT USA_LON USA_RECORD USA_STATUS USA_WIND USA_PRES USA_SSHS USA_R34_NE USA_R34_SE USA_R34_SW USA_R34_NW USA_R50_NE USA_R50_SE USA_R50_SW USA_R50_NW USA_R64_NE USA_R64_SE USA_R64_SW USA_R64_NW USA_POCI USA_ROCI USA_RMW USA_EYE TOKYO_LAT TOKYO_LON TOKYO_GRADE TOKYO_WIND TOKYO_PRES TOKYO_R50_DIR TOKYO_R50_LONG TOKYO_R50_SHORT TOKYO_R30_DIR TOKYO_R30_LONG TOKYO_R30_SHORT TOKYO_LAND CMA_LAT CMA_LON CMA_CAT CMA_WIND CMA_PRES HKO_LAT HKO_LON HKO_CAT HKO_WIND HKO_PRES NEWDELHI_LAT NEWDELHI_LON NEWDELHI_GRADE NEWDELHI_WIND NEWDELHI_PRES NEWDELHI_CI NEWDELHI_DP NEWDELHI_POCI REUNION_LAT REUNION_LON REUNION_TYPE REUNION_WIND REUNION_PRES REUNION_TNUM REUNION_CI REUNION_RMW REUNION_R34_NE REUNION_R34_SE REUNION_R34_SW REUNION_R34_NW REUNION_R50_NE REUNION_R50_SE REUNION_R50_SW REUNION_R50_NW REUNION_R64_NE REUNION_R64_SE REUNION_R64_SW REUNION_R64_NW BOM_LAT BOM_LON BOM_TYPE BOM_WIND BOM_PRES BOM_TNUM BOM_CI BOM_RMW BOM_R34_NE BOM_R34_SE BOM_R34_SW BOM_R34_NW BOM_R50_NE BOM_R50_SE BOM_R50_SW BOM_R50_NW BOM_R64_NE BOM_R64_SE BOM_R64_SW BOM_R64_NW BOM_ROCI BOM_POCI BOM_EYE BOM_POS_METHOD BOM_PRES_METHOD NADI_LAT NADI_LON NADI_CAT NADI_WIND NADI_PRES WELLINGTON_LAT WELLINGTON_LON WELLINGTON_WIND WELLINGTON_PRES DS824_LAT DS824_LON DS824_STAGE DS824_WIND DS824_PRES TD9636_LAT TD9636_LON TD9636_STAGE TD9636_WIND TD9636_PRES TD9635_LAT TD9635_LON TD9635_WIND TD9635_PRES TD9635_ROCI NEUMANN_LAT NEUMANN_LON NEUMANN_CLASS NEUMANN_WIND NEUMANN_PRES MLC_LAT MLC_LON MLC_CLASS MLC_WIND MLC_PRES USA_GUST BOM_GUST BOM_GUST_PER REUNION_GUST REUNION_GUST_PER USA_SEAHGT USA_SEARAD_NE USA_SEARAD_SE USA_SEARAD_SW USA_SEARAD_NW STORM_SPEED STORM_DIR
1929260N13129 1929 58 WP MM NOT_NAMED 1929-09-17 10:00:00 NR 13.0000 128.800 main 369 358 __________O___ -1 13.0000 128.800 3 5 310
1929260N13129 1929 58 WP MM NOT_NAMED 1929-09-17 12:00:00 NR 13.1010 128.680 main 361 344 __________P___ -1 13.1010 128.680 3 5 311
1929260N13129 1929 58 WP MM NOT_NAMED 1929-09-17 15:00:00 NR 13.2646 128.494 main 348 332 __________P___ -1 13.2646 128.494 3 5 314
1929260N13129 1929 58 WP MM NOT_NAMED 1929-09-17 18:00:00 NR 13.4594 128.296 main 336 322 __________P___ -1 13.4594 128.296 3 6 318
1929260N13129 1929 58 WP MM NOT_NAMED 1929-09-17 21:00:00 NR 13.7041 128.078 main 328 324 __________P___ -1 13.7041 128.078 3 7 320
1929260N13129 1929 58 WP MM NOT_NAMED 1929-09-17 22:00:00 NR 13.8000 128.000 main 324 320 __________O___ -1 13.8000 128.000 4 8 322
1929260N13129 1929 58 WP MM NOT_NAMED 1929-09-18 00:00:00 NR 14.0147 127.833 main 320 319 __________P___ -1 14.0147 127.833 4 9 323
1929260N13129 1929 58 WP MM NOT_NAMED 1929-09-18 03:00:00 NR 14.3751 127.559 main 334 322 __________P___ -1 14.3751 127.559 4 9 323
1929260N13129 1929 58 WP MM NOT_NAMED 1929-09-18 06:00:00 NR 14.7479 127.254 main 325 300 __________P___ -1 14.7479 127.254 4 10 319
1929260N13129 1929 58 WP MM NOT_NAMED 1929-09-18 09:00:00 NR 15.0960 126.918 main 300 296 __________P___ -1 15.0960 126.918 4 9 316
1929260N13129 1929 58 WP MM NOT_NAMED 1929-09-18 10:00:00 NR 15.2000 126.800 main 296 290 __________O___ -1 15.2000 126.800 4 8 317
1929260N13129 1929 58 WP MM NOT_NAMED 1929-09-18 12:00:00 NR 15.3789 126.642 main 290 287 __________P___ -1 15.3789 126.642 4 7 316
1929260N13129 1929 58 WP MM NOT_NAMED 1929-09-18 15:00:00 NR 15.6100 126.382 main 287 272 __________P___ -1 15.6100 126.382 4 7 305
1929260N13129 1929 58 WP MM NOT_NAMED 1929-09-18 18:00:00 NR 15.8007 126.014 main 272 248 __________P___ -1 15.8007 126.014 4 10 291
1929260N13129 1929 58 WP MM NOT_NAMED 1929-09-18 21:00:00 NR 15.9557 125.448 main 253 243 __________P___ -1 15.9557 125.448 4 12 284
1929260N13129 1929 58 WP MM NOT_NAMED 1929-09-18 22:00:00 NR 16.0000 125.200 main 243 232 __________O___ -1 16.0000 125.200 4 17 279
1929260N13129 1929 58 WP MM NOT_NAMED 1929-09-19 00:00:00 NR 16.0890 124.556 main 237 123 __________P___ -1 16.0890 124.556 4 21 276
1929260N13129 1929 58 WP MM NOT_NAMED 1929-09-19 03:00:00 NR 16.1897 123.381 main 123 0 __________P___ -1 16.1897 123.381 4 24 274
1929260N13129 1929 58 WP MM NOT_NAMED 1929-09-19 06:00:00 NR 16.2552 122.065 main 0 0 __________P___ -1 16.2552 122.065 4 26 272
1929260N13129 1929 58 WP MM NOT_NAMED 1929-09-19 09:00:00 NR 16.2923 120.729 main 0 0 __________P___ -1 16.2923 120.729 4 25 272
1929260N13129 1929 58 WP MM NOT_NAMED 1929-09-19 10:00:00 NR 16.3000 120.300 main 10 0 __________O___ -1 16.3000 120.300 4 24 271
1929260N13129 1929 58 WP MM NOT_NAMED 1929-09-19 12:00:00 NR 16.3196 119.486 main 32 42 __________P___ -1 16.3196 119.486 4 23 271
1929260N13129 1929 58 WP MM NOT_NAMED 1929-09-19 15:00:00 NR 16.3311 118.302 main 153 163 __________P___ -1 16.3311 118.302 4 22 270
1929260N13129 1929 58 WP MM NOT_NAMED 1929-09-19 18:00:00 NR 16.3250 117.211 main 269 269 __________P___ -1 16.3250 117.211 4 20 269
1929260N13129 1929 58 WP MM NOT_NAMED 1929-09-19 21:00:00 NR 16.3074 116.271 main 364 375 __________P___ -1 16.3074 116.271 4 17 269
1929260N13129 1929 58 WP MM NOT_NAMED 1929-09-19 22:00:00 NR 16.3000 116.000 main 396 396 __________O___ -1 16.3000 116.000 4 14 268
1929260N13129 1929 58 WP MM NOT_NAMED 1929-09-20 00:00:00 NR 16.2839 115.552 main 439 449 __________P___ -1 16.2839 115.552 4 11 267
1929260N13129 1929 58 WP MM NOT_NAMED 1929-09-20 03:00:00 NR 16.2555 115.031 main 503 503 __________P___ -1 16.2555 115.031 4 9 266
1929260N13129 1929 58 WP MM NOT_NAMED 1929-09-20 06:00:00 NR 16.2276 114.619 main 523 488 __________P___ -1 16.2276 114.619 4 8 266
1929260N13129 1929 58 WP MM NOT_NAMED 1929-09-20 09:00:00 NR 16.2053 114.236 main 488 480 __________P___ -1 16.2053 114.236 4 7 267
1929260N13129 1929 58 WP MM NOT_NAMED 1929-09-20 10:00:00 NR 16.2000 114.100 main 480 455 __________O___ -1 16.2000 114.100 4 9 267
1929260N13129 1929 58 WP MM NOT_NAMED 1929-09-20 12:00:00 NR 16.1832 113.785 main 455 415 __________P___ -1 16.1832 113.785 4 9 267
1929260N13129 1929 58 WP MM NOT_NAMED 1929-09-20 15:00:00 NR 16.1642 113.300 main 415 378 __________P___ -1 16.1642 113.300 4 10 269
1929260N13129 1929 58 WP MM NOT_NAMED 1929-09-20 18:00:00 NR 16.1616 112.781 main 378 338 __________P___ -1 16.1616 112.781 4 11 271
1929260N13129 1929 58 WP MM NOT_NAMED 1929-09-20 21:00:00 NR 16.1849 112.207 main 338 325 __________P___ -1 16.1849 112.207 4 11 273
1929260N13129 1929 58 WP MM NOT_NAMED 1929-09-20 22:00:00 NR 16.2000 112.000 main 325 293 __________O___ -1 16.2000 112.000 4 13 272
1929260N13129 1929 58 WP MM NOT_NAMED 1929-09-21 00:00:00 NR 16.2024 111.535 main 293 232 __________P___ -1 16.2024 111.535 4 14 271
1929260N13129 1929 58 WP MM NOT_NAMED 1929-09-21 03:00:00 NR 16.2301 110.780 main 232 170 __________P___ -1 16.2301 110.780 4 15 275
1929260N13129 1929 58 WP MM NOT_NAMED 1929-09-21 06:00:00 NR 16.3195 109.999 main 170 111 __________P___ -1 16.3195 109.999 4 15 281
1929260N13129 1929 58 WP MM NOT_NAMED 1929-09-21 09:00:00 NR 16.5084 109.240 main 111 100 __________P___ -1 16.5084 109.240 4 15 286
1929260N13129 1929 58 WP MM NOT_NAMED 1929-09-21 10:00:00 NR 16.6000 109.000 main 100 79 __________O___ -1 16.6000 109.000 4 15 296
1929260N13129 1929 58 WP MM NOT_NAMED 1929-09-21 12:00:00 NR 16.8312 108.546 main 79 77 __________P___ -1 16.8312 108.546 4 15 303
1929260N13129 1929 58 WP MM NOT_NAMED 1929-09-21 15:00:00 NR 17.2792 107.919 main 84 69 __________P___ -1 17.2792 107.919 4 15 310
1929260N13129 1929 58 WP MM NOT_NAMED 1929-09-21 18:00:00 NR 17.8150 107.339 main 77 47 __________P___ -1 17.8150 107.339 4 16 316
1929260N13129 1929 58 WP MM NOT_NAMED 1929-09-21 21:00:00 NR 18.4005 106.783 main 53 53 __________P___ -1 18.4005 106.783 4 16 318
1929260N13129 1929 58 WP MM NOT_NAMED 1929-09-21 22:00:00 NR 18.6000 106.600 main 54 __________O___ -1 18.6000 106.600 4 16 319

Digital Typhoon Data and Search

About IBTrACS Database

This database is a web-friendly format of International Best Track Archive for Climate Stewardship (IBTrACS), a global best track data archive curated by NOAA dating back to 1842.

Updated: 2021-11-26